CWI644 NZCH-NZQN
Flight info
| Callsign | CWI644 |
|---|---|
| Flight time | 0h 46m |
| Altitude | 30000 |
| Route | GUPUT Y266 ELRUV |
| Aircraft | A320/M-SDE3FGHIRWY/LB1 |
Departure
| Time | 2026-04-30 21:23 |
|---|---|
| Airport | Christchurch International Airport (NZCH) |
Arrival
| Time | 2026-04-30 22:09 |
|---|---|
| Airport | Queenstown Airport (NZQN) |
| Time | Latitude | Longitude | Altitude | Speed | Heading |
|---|---|---|---|---|---|
| 2026-04-30 21:04 | -43.48839 | 172.53817 | 108 ft | 0 kts | 130° |
| 2026-04-30 21:12 | -43.48843 | 172.53823 | 109 ft | 0 kts | 130° |
| 2026-04-30 21:15 | -43.48841 | 172.53819 | 82 ft | 3 kts | 130° |
| 2026-04-30 21:15 | -43.48826 | 172.53795 | 109 ft | 3 kts | 128° |
| 2026-04-30 21:15 | -43.48813 | 172.53770 | 107 ft | 3 kts | 125° |
| 2026-04-30 21:15 | -43.48800 | 172.53745 | 109 ft | 3 kts | 121° |
| 2026-04-30 21:16 | -43.48789 | 172.53717 | 108 ft | 3 kts | 112° |
| 2026-04-30 21:16 | -43.48783 | 172.53689 | 107 ft | 3 kts | 85° |
| 2026-04-30 21:16 | -43.48787 | 172.53670 | 106 ft | 0 kts | 40° |
| 2026-04-30 21:18 | -43.48785 | 172.53675 | 106 ft | 1 kts | 59° |
| 2026-04-30 21:18 | -43.48792 | 172.53680 | 106 ft | 1 kts | 159° |
| 2026-04-30 21:19 | -43.48804 | 172.53663 | 109 ft | 5 kts | 226° |
| 2026-04-30 21:19 | -43.48846 | 172.53607 | 108 ft | 12 kts | 222° |
| 2026-04-30 21:19 | -43.48928 | 172.53520 | 109 ft | 17 kts | 213° |
| 2026-04-30 21:19 | -43.49026 | 172.53410 | 111 ft | 21 kts | 220° |
| 2026-04-30 21:20 | -43.49152 | 172.53262 | 115 ft | 22 kts | 220° |
| 2026-04-30 21:20 | -43.49273 | 172.53118 | 115 ft | 25 kts | 220° |
| 2026-04-30 21:20 | -43.49400 | 172.52974 | 121 ft | 24 kts | 220° |
| 2026-04-30 21:20 | -43.49498 | 172.52857 | 127 ft | 10 kts | 227° |
| 2026-04-30 21:21 | -43.49510 | 172.52755 | 127 ft | 9 kts | 273° |
| 2026-04-30 21:21 | -43.49499 | 172.52639 | 122 ft | 16 kts | 281° |
| 2026-04-30 21:21 | -43.49415 | 172.52611 | 126 ft | 2 kts | 35° |
| 2026-04-30 21:22 | -43.49363 | 172.52667 | 123 ft | 34 kts | 40° |
| 2026-04-30 21:22 | -43.47480 | 172.54873 | 549 ft | 160 kts | 41° |
| 2026-04-30 21:23 | -43.46619 | 172.55830 | 1261 ft | 157 kts | 32° |
| 2026-04-30 21:23 | -43.45673 | 172.56584 | 1826 ft | 159 kts | 30° |
| 2026-04-30 21:23 | -43.43480 | 172.57955 | 2480 ft | 194 kts | 20° |
| 2026-04-30 21:24 | -43.42153 | 172.58672 | 2790 ft | 214 kts | 21° |
| 2026-04-30 21:24 | -43.40773 | 172.59448 | 3336 ft | 220 kts | 21° |
| 2026-04-30 21:24 | -43.39286 | 172.59846 | 4074 ft | 221 kts | 350° |
| 2026-04-30 21:24 | -43.37918 | 172.58973 | 4869 ft | 220 kts | 316° |
| 2026-04-30 21:25 | -43.37288 | 172.55044 | 6380 ft | 230 kts | 251° |
| 2026-04-30 21:25 | -43.37876 | 172.52986 | 7147 ft | 233 kts | 250° |
| 2026-04-30 21:25 | -43.38505 | 172.50921 | 7888 ft | 236 kts | 243° |
| 2026-04-30 21:26 | -43.41157 | 172.48255 | 9124 ft | 263 kts | 190° |
| 2026-04-30 21:26 | -43.43066 | 172.48104 | 9484 ft | 285 kts | 183° |
| 2026-04-30 21:27 | -43.47197 | 172.47948 | 10501 ft | 315 kts | 184° |
| 2026-04-30 21:27 | -43.49455 | 172.47716 | 10689 ft | 336 kts | 192° |
| 2026-04-30 21:27 | -43.51737 | 172.46751 | 11001 ft | 349 kts | 207° |
| 2026-04-30 21:28 | -43.55548 | 172.42655 | 12279 ft | 351 kts | 233° |
| 2026-04-30 21:28 | -43.56855 | 172.39809 | 12949 ft | 353 kts | 242° |
| 2026-04-30 21:28 | -43.59230 | 172.33844 | 14379 ft | 356 kts | 243° |
| 2026-04-30 21:29 | -43.60417 | 172.30833 | 14987 ft | 359 kts | 243° |
| 2026-04-30 21:29 | -43.64046 | 172.21653 | 16679 ft | 367 kts | 242° |
| 2026-04-30 21:30 | -43.66524 | 172.15422 | 17805 ft | 373 kts | 242° |
| 2026-04-30 21:31 | -43.70302 | 172.05860 | 19422 ft | 382 kts | 242° |
| 2026-04-30 21:31 | -43.72864 | 171.99357 | 20412 ft | 389 kts | 242° |
| 2026-04-30 21:32 | -43.75475 | 171.92733 | 21411 ft | 395 kts | 242° |
| 2026-04-30 21:32 | -43.76788 | 171.89391 | 21871 ft | 397 kts | 242° |
| 2026-04-30 21:32 | -43.78112 | 171.86010 | 22326 ft | 400 kts | 242° |
| 2026-04-30 21:32 | -43.79422 | 171.82663 | 22767 ft | 403 kts | 241° |
| 2026-04-30 21:33 | -43.80759 | 171.79239 | 23190 ft | 406 kts | 241° |
| 2026-04-30 21:33 | -43.83463 | 171.72314 | 24061 ft | 411 kts | 241° |
| 2026-04-30 21:33 | -43.84857 | 171.68835 | 24438 ft | 414 kts | 240° |
| 2026-04-30 21:34 | -43.86312 | 171.65381 | 24794 ft | 416 kts | 239° |
| 2026-04-30 21:34 | -43.89326 | 171.58465 | 25455 ft | 422 kts | 238° |
| 2026-04-30 21:34 | -43.90846 | 171.54980 | 25818 ft | 424 kts | 238° |
| 2026-04-30 21:35 | -43.92363 | 171.51459 | 26166 ft | 426 kts | 238° |
| 2026-04-30 21:35 | -43.93853 | 171.47900 | 26507 ft | 428 kts | 246° |
| 2026-04-30 21:35 | -43.93930 | 171.43774 | 25355 ft | 459 kts | 292° |
| 2026-04-30 21:35 | -43.91513 | 171.40524 | 21291 ft | 546 kts | 335° |
| 2026-04-30 21:36 | -43.87534 | 171.39506 | 17705 ft | 613 kts | 0° |
| 2026-04-30 21:36 | -43.83303 | 171.39783 | 16816 ft | 582 kts | 359° |
| 2026-04-30 21:37 | -43.73778 | 171.39404 | 22235 ft | 358 kts | 335° |
| 2026-04-30 21:37 | -43.71898 | 171.37619 | 23175 ft | 311 kts | 310° |
| 2026-04-30 21:37 | -43.70751 | 171.35201 | 23175 ft | 296 kts | 286° |
| 2026-04-30 21:37 | -43.70595 | 171.32419 | 23185 ft | 304 kts | 257° |
| 2026-04-30 21:38 | -43.71330 | 171.29631 | 23325 ft | 317 kts | 238° |
| 2026-04-30 21:38 | -43.72699 | 171.27168 | 23465 ft | 330 kts | 230° |
| 2026-04-30 21:38 | -43.74225 | 171.24709 | 23603 ft | 344 kts | 229° |
| 2026-04-30 21:38 | -43.75832 | 171.22185 | 23742 ft | 357 kts | 228° |
| 2026-04-30 21:39 | -43.77508 | 171.19572 | 23885 ft | 369 kts | 228° |
| 2026-04-30 21:39 | -43.79235 | 171.16871 | 24017 ft | 381 kts | 228° |
| 2026-04-30 21:39 | -43.81014 | 171.14073 | 24158 ft | 393 kts | 229° |
| 2026-04-30 21:39 | -43.82839 | 171.11188 | 24285 ft | 404 kts | 229° |
| 2026-04-30 21:40 | -43.84710 | 171.08221 | 24427 ft | 413 kts | 229° |
| 2026-04-30 21:40 | -43.86606 | 171.05206 | 24720 ft | 417 kts | 229° |
| 2026-04-30 21:40 | -43.88520 | 171.02158 | 25068 ft | 420 kts | 228° |
| 2026-04-30 21:40 | -43.90441 | 170.99102 | 25432 ft | 422 kts | 228° |
| 2026-04-30 21:41 | -43.92372 | 170.96024 | 25797 ft | 424 kts | 228° |
| 2026-04-30 21:41 | -43.94309 | 170.92933 | 26151 ft | 426 kts | 228° |
| 2026-04-30 21:41 | -43.96255 | 170.89819 | 26502 ft | 428 kts | 228° |
| 2026-04-30 21:41 | -43.98211 | 170.86689 | 26854 ft | 430 kts | 228° |
| 2026-04-30 21:42 | -44.00177 | 170.83545 | 27299 ft | 429 kts | 228° |
| 2026-04-30 21:42 | -44.02084 | 170.80494 | 28501 ft | 409 kts | 227° |
| 2026-04-30 21:42 | -44.03906 | 170.77574 | 29728 ft | 392 kts | 227° |
| 2026-04-30 21:42 | -44.05683 | 170.74720 | 30309 ft | 391 kts | 227° |
| 2026-04-30 21:43 | -44.07476 | 170.71848 | 30567 ft | 396 kts | 227° |
| 2026-04-30 21:43 | -44.08680 | 170.69919 | 30628 ft | 403 kts | 227° |
| 2026-04-30 21:43 | -44.11179 | 170.65910 | 30642 ft | 417 kts | 227° |
| 2026-04-30 21:43 | -44.13096 | 170.62821 | 30642 ft | 427 kts | 227° |
| 2026-04-30 21:44 | -44.17060 | 170.56410 | 30649 ft | 446 kts | 227° |
| 2026-04-30 21:44 | -44.21189 | 170.49717 | 30650 ft | 464 kts | 228° |
| 2026-04-30 21:45 | -44.25425 | 170.42836 | 30659 ft | 469 kts | 228° |
| 2026-04-30 21:45 | -44.29681 | 170.35923 | 30660 ft | 470 kts | 228° |
| 2026-04-30 21:46 | -44.33938 | 170.28988 | 30668 ft | 470 kts | 228° |
| 2026-04-30 21:46 | -44.38182 | 170.22045 | 30661 ft | 470 kts | 228° |
| 2026-04-30 21:47 | -44.41710 | 170.16263 | 30655 ft | 470 kts | 228° |
| 2026-04-30 21:47 | -44.45946 | 170.09316 | 30647 ft | 470 kts | 228° |
| 2026-04-30 21:48 | -44.50769 | 170.01366 | 30660 ft | 447 kts | 228° |
| 2026-04-30 21:48 | -44.54118 | 169.95843 | 30660 ft | 442 kts | 228° |
| 2026-04-30 21:49 | -44.58107 | 169.89252 | 30656 ft | 449 kts | 229° |
| 2026-04-30 21:49 | -44.62058 | 169.82345 | 30651 ft | 458 kts | 236° |
| 2026-04-30 21:50 | -44.65191 | 169.74599 | 30641 ft | 460 kts | 239° |
| 2026-04-30 21:50 | -44.68328 | 169.66700 | 30326 ft | 461 kts | 239° |
| 2026-04-30 21:51 | -44.69870 | 169.62824 | 30031 ft | 461 kts | 239° |
| 2026-04-30 21:51 | -44.71435 | 169.58889 | 29747 ft | 461 kts | 240° |
| 2026-04-30 21:51 | -44.72997 | 169.54958 | 29488 ft | 461 kts | 240° |
| 2026-04-30 21:51 | -44.74559 | 169.51019 | 29217 ft | 461 kts | 240° |
| 2026-04-30 21:52 | -44.76121 | 169.47067 | 28943 ft | 462 kts | 240° |
| 2026-04-30 21:52 | -44.77681 | 169.43108 | 28613 ft | 463 kts | 240° |
| 2026-04-30 21:52 | -44.79241 | 169.39134 | 27901 ft | 464 kts | 240° |
| 2026-04-30 21:52 | -44.80797 | 169.35154 | 27206 ft | 466 kts | 242° |
| 2026-04-30 21:53 | -44.82088 | 169.30967 | 26483 ft | 468 kts | 251° |
| 2026-04-30 21:53 | -44.83075 | 169.26611 | 25763 ft | 465 kts | 252° |
| 2026-04-30 21:53 | -44.84049 | 169.22291 | 25057 ft | 460 kts | 252° |
| 2026-04-30 21:53 | -44.85012 | 169.18015 | 24358 ft | 456 kts | 252° |
| 2026-04-30 21:54 | -44.85966 | 169.13772 | 23576 ft | 451 kts | 252° |
| 2026-04-30 21:54 | -44.86906 | 169.09581 | 22907 ft | 446 kts | 252° |
| 2026-04-30 21:54 | -44.87832 | 169.05439 | 22232 ft | 440 kts | 252° |
| 2026-04-30 21:54 | -44.88746 | 169.01343 | 21576 ft | 435 kts | 252° |
| 2026-04-30 21:55 | -44.89647 | 168.97292 | 20953 ft | 431 kts | 252° |
| 2026-04-30 21:55 | -44.90499 | 168.93258 | 20343 ft | 427 kts | 257° |
| 2026-04-30 21:55 | -44.90891 | 168.89146 | 19755 ft | 423 kts | 268° |
| 2026-04-30 21:55 | -44.90809 | 168.85018 | 19171 ft | 419 kts | 272° |
| 2026-04-30 21:56 | -44.90667 | 168.80929 | 18552 ft | 416 kts | 272° |
| 2026-04-30 21:56 | -44.90525 | 168.76873 | 17968 ft | 412 kts | 272° |
| 2026-04-30 21:56 | -44.90385 | 168.72856 | 17383 ft | 408 kts | 272° |
| 2026-04-30 21:56 | -44.90287 | 168.68873 | 16770 ft | 404 kts | 268° |
| 2026-04-30 21:57 | -44.90655 | 168.65022 | 16186 ft | 400 kts | 256° |
| 2026-04-30 21:57 | -44.91586 | 168.61361 | 15636 ft | 385 kts | 246° |
| 2026-04-30 21:57 | -44.92737 | 168.58081 | 14947 ft | 369 kts | 245° |
| 2026-04-30 21:57 | -44.93868 | 168.54887 | 14358 ft | 351 kts | 245° |
| 2026-04-30 21:58 | -44.94924 | 168.51908 | 13682 ft | 338 kts | 245° |
| 2026-04-30 21:58 | -44.95967 | 168.48954 | 12763 ft | 334 kts | 245° |
| 2026-04-30 21:58 | -44.96994 | 168.46049 | 12043 ft | 325 kts | 245° |
| 2026-04-30 21:58 | -44.97995 | 168.43208 | 11514 ft | 324 kts | 245° |
| 2026-04-30 21:59 | -44.98995 | 168.40361 | 10990 ft | 324 kts | 245° |
| 2026-04-30 21:59 | -44.99990 | 168.37532 | 10741 ft | 315 kts | 245° |
| 2026-04-30 21:59 | -45.00946 | 168.34813 | 10627 ft | 304 kts | 245° |
| 2026-04-30 22:00 | -45.02870 | 168.29730 | 10363 ft | 286 kts | 235° |
| 2026-04-30 22:00 | -45.05861 | 168.26204 | 10140 ft | 283 kts | 208° |
| 2026-04-30 22:00 | -45.07719 | 168.25269 | 10041 ft | 286 kts | 195° |
| 2026-04-30 22:01 | -45.09710 | 168.24975 | 9818 ft | 292 kts | 181° |
| 2026-04-30 22:01 | -45.11735 | 168.25394 | 9375 ft | 298 kts | 166° |
| 2026-04-30 22:01 | -45.13640 | 168.26572 | 8970 ft | 302 kts | 148° |
| 2026-04-30 22:01 | -45.15192 | 168.28575 | 8565 ft | 305 kts | 128° |
| 2026-04-30 22:02 | -45.16178 | 168.31193 | 8152 ft | 298 kts | 107° |
| 2026-04-30 22:02 | -45.16484 | 168.34033 | 7723 ft | 287 kts | 86° |
| 2026-04-30 22:02 | -45.16151 | 168.36772 | 7295 ft | 279 kts | 67° |
| 2026-04-30 22:02 | -45.15329 | 168.39187 | 6890 ft | 268 kts | 59° |
| 2026-04-30 22:03 | -45.14464 | 168.41480 | 6521 ft | 259 kts | 60° |
| 2026-04-30 22:03 | -45.13637 | 168.43688 | 6173 ft | 250 kts | 60° |
| 2026-04-30 22:03 | -45.12836 | 168.45834 | 5808 ft | 244 kts | 60° |
| 2026-04-30 22:03 | -45.12053 | 168.47925 | 5471 ft | 238 kts | 59° |
| 2026-04-30 22:04 | -45.11298 | 168.49935 | 5134 ft | 229 kts | 60° |
| 2026-04-30 22:04 | -45.10580 | 168.51850 | 4814 ft | 212 kts | 60° |
| 2026-04-30 22:04 | -45.09274 | 168.55327 | 4266 ft | 188 kts | 60° |
| 2026-04-30 22:05 | -45.08669 | 168.56938 | 3996 ft | 178 kts | 60° |
| 2026-04-30 22:05 | -45.08108 | 168.58431 | 3749 ft | 164 kts | 61° |
| 2026-04-30 22:05 | -45.07607 | 168.59766 | 3519 ft | 149 kts | 60° |
| 2026-04-30 22:05 | -45.07136 | 168.61019 | 3306 ft | 141 kts | 61° |
| 2026-04-30 22:06 | -45.06681 | 168.62230 | 3118 ft | 138 kts | 61° |
| 2026-04-30 22:06 | -45.05790 | 168.64591 | 2763 ft | 135 kts | 60° |
| 2026-04-30 22:06 | -45.05343 | 168.65773 | 2580 ft | 137 kts | 61° |
| 2026-04-30 22:07 | -45.04886 | 168.66971 | 2388 ft | 140 kts | 58° |
| 2026-04-30 22:07 | -45.04286 | 168.68054 | 2188 ft | 141 kts | 44° |
| 2026-04-30 22:07 | -45.03525 | 168.68929 | 1970 ft | 141 kts | 38° |
| 2026-04-30 22:07 | -45.02859 | 168.69934 | 1757 ft | 140 kts | 54° |
| 2026-04-30 22:08 | -45.02410 | 168.71126 | 1563 ft | 136 kts | 69° |
| 2026-04-30 22:08 | -45.02167 | 168.72409 | 1368 ft | 134 kts | 78° |
| 2026-04-30 22:08 | -45.01975 | 168.73697 | 1207 ft | 133 kts | 77° |
| 2026-04-30 22:08 | -45.01797 | 168.74836 | 1171 ft | 87 kts | 78° |
| 2026-04-30 22:09 | -45.01729 | 168.75228 | 1212 ft | 15 kts | 62° |
| 2026-04-30 22:09 | -45.01746 | 168.75264 | 1211 ft | 8 kts | 247° |
| 2026-04-30 22:09 | -45.01766 | 168.75101 | 1203 ft | 22 kts | 259° |
| 2026-04-30 22:09 | -45.01799 | 168.74872 | 1169 ft | 26 kts | 258° |
| 2026-04-30 22:10 | -45.01839 | 168.74613 | 1171 ft | 27 kts | 257° |
| 2026-04-30 22:10 | -45.01873 | 168.74390 | 1177 ft | 18 kts | 258° |
| 2026-04-30 22:10 | -45.01899 | 168.74218 | 1177 ft | 16 kts | 258° |
| 2026-04-30 22:10 | -45.01955 | 168.74111 | 1176 ft | 17 kts | 204° |
| 2026-04-30 22:11 | -45.02090 | 168.74034 | 1172 ft | 6 kts | 205° |
| 2026-04-30 22:11 | -45.02112 | 168.74019 | 1173 ft | 3 kts | 206° |
| 2026-04-30 22:11 | -45.02119 | 168.74014 | 1166 ft | 0 kts | 206° |